createdAt,value
2018-07-08T00:01:02.273Z,74.00
2018-07-08T00:03:31.102Z,73.90
2018-07-08T00:05:59.721Z,73.70
2018-07-08T00:08:27.419Z,73.40
2018-07-08T00:10:56.520Z,73.90
2018-07-08T00:13:24.361Z,73.70
2018-07-08T00:15:52.060Z,73.90
2018-07-08T00:18:21.016Z,74.00
2018-07-08T00:20:49.537Z,74.00
2018-07-08T00:23:17.204Z,74.00
2018-07-08T00:25:45.085Z,74.10
2018-07-08T00:28:12.792Z,74.70
2018-07-08T00:30:40.488Z,74.20
2018-07-08T00:33:08.576Z,73.90
2018-07-08T00:35:36.272Z,74.10
2018-07-08T00:38:05.171Z,74.10
2018-07-08T00:40:34.918Z,74.10
2018-07-08T00:43:03.935Z,74.20
2018-07-08T00:45:31.641Z,74.20
2018-07-08T00:48:00.537Z,74.20
2018-07-08T00:50:28.720Z,73.90
2018-07-08T00:52:56.396Z,74.10
2018-07-08T00:55:24.084Z,74.20
2018-07-08T00:57:51.776Z,74.10
2018-07-08T01:00:25.259Z,74.00
2018-07-08T01:02:52.916Z,74.10
2018-07-08T01:05:20.816Z,74.20
2018-07-08T01:07:48.548Z,74.20
2018-07-08T01:10:16.244Z,74.10
2018-07-08T01:12:43.920Z,73.50
2018-07-08T01:15:11.617Z,73.50
2018-07-08T01:17:39.320Z,73.30
2018-07-08T01:20:07.133Z,73.30
2018-07-08T01:25:06.376Z,73.20
2018-07-08T01:27:34.936Z,73.50
2018-07-08T01:30:03.642Z,73.90
2018-07-08T01:32:33.492Z,73.90
2018-07-08T01:35:02.267Z,73.60
2018-07-08T01:37:31.545Z,73.70
2018-07-08T01:40:01.701Z,73.70
2018-07-08T01:42:31.287Z,73.50
2018-07-08T01:45:01.012Z,73.00
2018-07-08T01:47:30.292Z,72.70
2018-07-08T01:49:59.880Z,73.10
2018-07-08T01:52:29.700Z,73.50
2018-07-08T01:54:59.014Z,73.40
2018-07-08T01:57:27.716Z,73.40
2018-07-08T01:59:55.411Z,73.50
2018-07-08T02:02:23.123Z,73.50
2018-07-08T02:04:51.688Z,73.50
2018-07-08T02:07:19.372Z,73.40
2018-07-08T02:09:47.491Z,73.30
2018-07-08T02:12:15.381Z,73.50
2018-07-08T02:14:43.548Z,73.40
2018-07-08T02:17:11.240Z,73.20
2018-07-08T02:19:39.684Z,72.80
2018-07-08T02:22:07.352Z,73.10
2018-07-08T02:24:35.033Z,73.30
2018-07-08T02:27:04.584Z,73.60
2018-07-08T02:29:34.661Z,73.20
2018-07-08T02:32:02.364Z,73.50
2018-07-08T02:34:30.196Z,73.10
2018-07-08T02:36:57.899Z,73.10
2018-07-08T02:39:25.619Z,73.30
2018-07-08T02:41:54.212Z,73.50
2018-07-08T02:44:22.850Z,73.40
2018-07-08T02:46:51.500Z,73.30
2018-07-08T02:49:19.172Z,73.50
2018-07-08T02:51:48.204Z,73.30
2018-07-08T02:54:15.916Z,73.20
2018-07-08T02:56:43.584Z,73.30
2018-07-08T02:59:11.291Z,73.50
2018-07-08T03:01:38.960Z,73.10
2018-07-08T03:04:06.645Z,73.30
2018-07-08T03:06:35.711Z,73.50
2018-07-08T03:09:04.408Z,73.90
2018-07-08T03:11:32.085Z,73.40
2018-07-08T03:14:00.747Z,73.80
2018-07-08T03:16:28.837Z,73.10
2018-07-08T03:18:56.559Z,74.30
2018-07-08T03:21:24.236Z,73.40
2018-07-08T03:23:52.780Z,73.50
2018-07-08T03:26:20.685Z,73.50
2018-07-08T03:28:48.356Z,73.40
2018-07-08T03:31:16.257Z,73.60
2018-07-08T03:33:43.961Z,73.40
2018-07-08T03:36:11.800Z,73.60
2018-07-08T03:38:40.479Z,73.60
2018-07-08T03:41:09.176Z,73.70
2018-07-08T03:43:37.079Z,73.50
2018-07-08T03:46:06.443Z,73.40
2018-07-08T03:48:34.874Z,73.60
2018-07-08T03:51:04.349Z,73.60
2018-07-08T03:53:32.039Z,73.60
2018-07-08T03:56:00.604Z,73.50
2018-07-08T03:58:29.711Z,73.50
2018-07-08T04:00:58.843Z,73.30
2018-07-08T04:05:54.116Z,73.50
2018-07-08T04:08:21.788Z,73.40
2018-07-08T04:10:50.806Z,73.40
2018-07-08T04:13:18.525Z,73.60
2018-07-08T04:15:46.205Z,73.50
2018-07-08T04:18:13.899Z,73.00
2018-07-08T04:20:41.595Z,73.30
2018-07-08T04:23:09.679Z,73.40
2018-07-08T04:25:39.109Z,73.50
2018-07-08T04:28:06.831Z,73.40
2018-07-08T04:30:35.498Z,73.60
2018-07-08T04:33:05.340Z,73.50
2018-07-08T04:35:34.357Z,73.20
2018-07-08T04:38:03.559Z,73.60
2018-07-08T04:40:32.244Z,73.70
2018-07-08T04:43:00.935Z,73.20
2018-07-08T04:45:29.651Z,73.20
2018-07-08T04:47:58.914Z,73.20
2018-07-08T04:50:27.605Z,73.20
2018-07-08T04:52:56.408Z,73.10
2018-07-08T04:55:24.984Z,73.40
2018-07-08T04:57:53.547Z,73.30
2018-07-08T05:00:21.208Z,74.10
2018-07-08T05:02:49.920Z,73.70
2018-07-08T05:05:18.683Z,73.70
2018-07-08T05:07:47.227Z,73.50
2018-07-08T05:10:14.913Z,73.60
2018-07-08T05:12:43.500Z,73.20
2018-07-08T05:15:11.180Z,73.20
2018-07-08T05:17:38.849Z,73.20
2018-07-08T05:20:06.556Z,73.20
2018-07-08T05:22:35.321Z,73.50
2018-07-08T05:25:04.265Z,73.50
2018-07-08T05:27:31.924Z,73.20
2018-07-08T05:30:00.749Z,73.30
2018-07-08T05:32:28.890Z,73.40
2018-07-08T05:34:56.576Z,73.20
2018-07-08T05:37:24.261Z,73.20
2018-07-08T05:39:51.951Z,73.10
2018-07-08T05:42:19.649Z,73.10
2018-07-08T05:44:47.315Z,73.70
2018-07-08T05:47:14.993Z,73.60
2018-07-08T05:49:42.673Z,73.60
2018-07-08T05:52:10.340Z,73.50
2018-07-08T05:54:38.094Z,73.10
2018-07-08T05:57:05.901Z,73.50
2018-07-08T06:02:03.819Z,73.90
2018-07-08T06:04:33.371Z,73.90
2018-07-08T06:07:01.125Z,73.90
2018-07-08T06:09:29.729Z,73.50
2018-07-08T06:11:58.914Z,74.20
2018-07-08T06:14:26.607Z,74.10
2018-07-08T06:19:21.800Z,74.10
2018-07-08T06:21:49.487Z,74.00
2018-07-08T06:24:18.083Z,74.20
2018-07-08T06:26:45.770Z,73.90
2018-07-08T06:29:14.445Z,73.90
2018-07-08T06:31:43.227Z,74.20
2018-07-08T06:34:11.900Z,73.30
2018-07-08T06:36:40.852Z,73.10
2018-07-08T06:39:08.567Z,73.80
2018-07-08T06:41:37.260Z,73.90
2018-07-08T06:44:05.016Z,73.70
2018-07-08T06:46:33.912Z,73.90
2018-07-08T06:49:01.692Z,73.80
2018-07-08T06:51:31.216Z,74.00
2018-07-08T06:53:58.931Z,73.80
2018-07-08T06:56:27.645Z,74.10
2018-07-08T06:58:55.365Z,73.20
2018-07-08T07:01:23.938Z,73.70
2018-07-08T07:03:52.668Z,73.80
2018-07-08T07:06:20.383Z,73.90
2018-07-08T07:08:49.109Z,74.10
2018-07-08T07:11:18.068Z,74.10
2018-07-08T07:13:46.807Z,74.00
2018-07-08T07:16:15.387Z,74.00
2018-07-08T07:18:45.371Z,74.00
2018-07-08T07:21:15.780Z,73.70
2018-07-08T07:23:43.748Z,74.00
2018-07-08T07:26:11.849Z,74.10
2018-07-08T07:28:39.568Z,73.90
2018-07-08T07:31:07.220Z,73.50
2018-07-08T07:33:34.896Z,74.00
2018-07-08T07:36:04.846Z,73.80
2018-07-08T07:41:04.936Z,73.90
2018-07-08T07:43:33.371Z,74.00
2018-07-08T07:46:01.042Z,73.90
2018-07-08T07:48:29.808Z,73.80
2018-07-08T07:50:57.519Z,74.00
2018-07-08T07:55:52.604Z,74.00
2018-07-08T07:58:21.267Z,73.10
2018-07-08T08:00:49.057Z,72.50
2018-07-08T08:03:16.738Z,72.30
2018-07-08T08:05:44.436Z,71.90
2018-07-08T08:08:12.105Z,71.60
2018-07-08T08:10:39.819Z,71.30
2018-07-08T08:13:08.434Z,72.10
2018-07-08T08:15:36.099Z,71.10
2018-07-08T08:18:04.343Z,71.00
2018-07-08T08:20:32.012Z,71.20
2018-07-08T08:23:00.927Z,71.30
2018-07-08T08:25:29.760Z,71.30
2018-07-08T08:27:57.437Z,71.40
2018-07-08T08:30:25.241Z,71.30
2018-07-08T08:32:53.918Z,71.40
2018-07-08T08:35:22.468Z,71.30
2018-07-08T08:37:52.280Z,72.00
2018-07-08T08:40:21.182Z,71.50
2018-07-08T08:42:48.872Z,71.60
2018-07-08T08:45:17.790Z,71.80
2018-07-08T08:50:13.576Z,71.70
2018-07-08T08:52:41.298Z,71.60
2018-07-08T08:55:09.474Z,71.70
2018-07-08T08:57:37.186Z,71.80
2018-07-08T09:00:06.287Z,72.00
2018-07-08T09:02:34.974Z,72.00
2018-07-08T09:05:03.845Z,72.10
2018-07-08T09:07:31.508Z,72.20
2018-07-08T09:12:30.591Z,72.10
2018-07-08T09:14:59.923Z,72.20
2018-07-08T09:17:29.050Z,72.30
2018-07-08T09:19:57.749Z,72.30
2018-07-08T09:22:26.435Z,72.30
2018-07-08T09:24:54.197Z,72.30
2018-07-08T09:27:21.876Z,72.30
2018-07-08T09:29:50.645Z,72.30
2018-07-08T09:32:19.228Z,72.30
2018-07-08T09:34:46.905Z,72.40
2018-07-08T09:37:14.607Z,72.40
2018-07-08T09:39:42.280Z,72.40
2018-07-08T09:42:09.996Z,72.50
2018-07-08T09:44:37.663Z,72.60
2018-07-08T09:47:06.419Z,72.50
2018-07-08T09:49:35.941Z,72.50
2018-07-08T09:52:03.666Z,72.60
2018-07-08T09:54:31.359Z,72.70
2018-07-08T09:57:01.464Z,72.80
2018-07-08T10:01:56.690Z,72.70
2018-07-08T10:04:25.044Z,72.60
2018-07-08T10:06:53.445Z,72.80
2018-07-08T10:09:22.237Z,72.70
2018-07-08T10:11:49.923Z,72.80
2018-07-08T10:14:19.380Z,72.70
2018-07-08T10:16:47.064Z,72.70
2018-07-08T10:19:15.893Z,72.70
2018-07-08T10:21:43.604Z,72.90
2018-07-08T10:24:11.565Z,73.10
2018-07-08T10:26:39.240Z,73.00
2018-07-08T10:29:07.260Z,72.90
2018-07-08T10:31:40.972Z,73.30
2018-07-08T10:34:08.643Z,73.10
2018-07-08T10:36:36.369Z,73.20
2018-07-08T10:39:05.771Z,73.20
2018-07-08T10:41:34.417Z,73.50
2018-07-08T10:44:03.729Z,73.10
2018-07-08T10:46:33.724Z,73.20
2018-07-08T10:49:02.388Z,73.10
2018-07-08T10:51:31.967Z,73.40
2018-07-08T10:54:01.724Z,73.40
2018-07-08T10:56:29.981Z,73.40
2018-07-08T10:58:57.668Z,73.50
2018-07-08T11:01:26.239Z,73.50
2018-07-08T11:03:54.813Z,73.40
2018-07-08T11:06:23.512Z,73.60
2018-07-08T11:08:52.195Z,73.40
2018-07-08T11:11:20.808Z,73.40
2018-07-08T11:13:49.580Z,73.50
2018-07-08T11:16:17.253Z,73.40
2018-07-08T11:18:45.796Z,73.70
2018-07-08T11:21:14.368Z,73.50
2018-07-08T11:23:43.096Z,73.60
2018-07-08T11:26:11.461Z,73.50
2018-07-08T11:28:39.189Z,73.60
2018-07-08T11:31:08.107Z,73.60
2018-07-08T11:33:36.725Z,73.70
2018-07-08T11:36:05.606Z,73.80
2018-07-08T11:38:35.868Z,73.80
2018-07-08T11:41:05.294Z,73.70
2018-07-08T11:43:34.426Z,73.80
2018-07-08T11:46:04.196Z,73.80
2018-07-08T11:48:32.776Z,73.30
2018-07-08T11:51:01.462Z,73.00
2018-07-08T11:56:01.429Z,73.40
2018-07-08T11:58:31.435Z,73.30
2018-07-08T12:01:00.455Z,73.30
2018-07-08T12:03:29.259Z,73.30
2018-07-08T12:05:57.820Z,73.20
2018-07-08T12:08:26.143Z,73.30
2018-07-08T12:10:54.868Z,73.10
2018-07-08T12:13:22.568Z,73.10
2018-07-08T12:15:51.261Z,73.10
2018-07-08T12:18:19.953Z,73.30
2018-07-08T12:20:47.647Z,73.90
2018-07-08T12:23:16.353Z,73.50
2018-07-08T12:25:44.053Z,73.60
2018-07-08T12:28:12.736Z,73.60
2018-07-08T12:30:40.412Z,73.90
2018-07-08T12:33:09.085Z,73.60
2018-07-08T12:35:36.800Z,73.70
2018-07-08T12:38:05.484Z,73.50
2018-07-08T12:40:34.516Z,73.80
2018-07-08T12:43:04.796Z,73.70
2018-07-08T12:45:33.406Z,73.80
2018-07-08T12:48:01.127Z,73.70
2018-07-08T12:50:29.540Z,73.80
2018-07-08T12:52:58.256Z,73.80
2018-07-08T12:55:25.960Z,73.80
2018-07-08T12:57:53.645Z,73.90
2018-07-08T13:00:21.343Z,73.80
2018-07-08T13:02:49.040Z,74.10
2018-07-08T13:05:16.733Z,73.90
2018-07-08T13:07:44.427Z,73.90
2018-07-08T13:10:12.123Z,73.90
2018-07-08T13:12:40.718Z,73.90
2018-07-08T13:15:08.413Z,74.00
2018-07-08T13:17:36.106Z,74.20
2018-07-08T13:20:04.895Z,74.10
2018-07-08T13:22:33.442Z,74.00
2018-07-08T13:25:01.148Z,74.20
2018-07-08T13:27:28.827Z,74.00
2018-07-08T13:29:56.532Z,74.20
2018-07-08T13:32:34.567Z,74.10
2018-07-08T13:35:02.277Z,74.00
2018-07-08T13:37:30.011Z,74.10
2018-07-08T13:39:57.693Z,74.20
2018-07-08T13:42:25.375Z,74.10
2018-07-08T13:44:53.084Z,74.10
2018-07-08T13:47:20.781Z,74.10
2018-07-08T13:49:48.469Z,74.20
2018-07-08T13:52:16.184Z,74.10
2018-07-08T13:54:44.059Z,74.20
2018-07-08T13:57:11.763Z,74.20
2018-07-08T13:59:39.456Z,74.10
2018-07-08T14:02:07.158Z,74.10
2018-07-08T14:04:34.913Z,74.20
2018-07-08T14:09:30.733Z,74.00
2018-07-08T14:11:58.431Z,74.30
2018-07-08T14:14:26.121Z,74.10
2018-07-08T14:16:54.685Z,74.10
2018-07-08T14:19:23.379Z,74.20
2018-07-08T14:21:51.057Z,74.10
2018-07-08T14:24:18.780Z,74.30
2018-07-08T14:26:46.595Z,74.20
2018-07-08T14:29:14.298Z,74.80
2018-07-08T14:31:42.132Z,74.20
2018-07-08T14:34:10.402Z,74.30
2018-07-08T14:36:38.150Z,74.10
2018-07-08T14:39:07.025Z,74.10
2018-07-08T14:41:36.753Z,74.20
2018-07-08T14:44:05.567Z,74.00
2018-07-08T14:46:34.349Z,74.10
2018-07-08T14:49:02.071Z,74.10
2018-07-08T14:51:30.711Z,74.30
2018-07-08T14:53:58.411Z,74.30
2018-07-08T14:56:26.104Z,74.30
2018-07-08T14:58:53.804Z,74.30
2018-07-08T15:01:22.193Z,74.20
2018-07-08T15:03:49.877Z,74.30
2018-07-08T15:06:17.552Z,74.50
2018-07-08T15:08:45.239Z,74.30
2018-07-08T15:11:13.041Z,74.50
2018-07-08T15:13:40.728Z,74.50
2018-07-08T15:16:10.882Z,74.40
2018-07-08T15:18:38.459Z,74.30
2018-07-08T15:21:06.197Z,74.20
2018-07-08T15:23:36.152Z,74.20
2018-07-08T15:26:04.936Z,74.40
2018-07-08T15:28:33.513Z,74.20
2018-07-08T15:33:30.388Z,74.30
2018-07-08T15:35:58.089Z,74.20
2018-07-08T15:38:25.778Z,74.30
2018-07-08T15:40:53.574Z,74.30
2018-07-08T15:43:21.277Z,74.30
2018-07-08T15:45:49.003Z,74.30
2018-07-08T15:48:16.818Z,74.40
2018-07-08T15:50:44.524Z,74.40
2018-07-08T15:53:12.224Z,74.40
2018-07-08T15:55:39.984Z,75.00
2018-07-08T15:58:07.740Z,74.30
2018-07-08T16:00:35.432Z,74.50
2018-07-08T16:03:04.250Z,74.40
2018-07-08T16:05:31.946Z,74.50
2018-07-08T16:08:00.103Z,74.50
2018-07-08T16:10:27.860Z,74.50
2018-07-08T16:12:56.439Z,74.60
2018-07-08T16:15:24.135Z,74.70
2018-07-08T16:17:52.000Z,74.50
2018-07-08T16:20:19.790Z,74.50
2018-07-08T16:22:47.479Z,74.60
2018-07-08T16:25:15.869Z,74.50
2018-07-08T16:27:44.566Z,74.50
2018-07-08T16:30:12.245Z,74.80
2018-07-08T16:32:40.008Z,74.80
2018-07-08T16:35:07.794Z,74.70
2018-07-08T16:37:35.490Z,74.70
2018-07-08T16:40:04.406Z,75.30
2018-07-08T16:42:32.269Z,74.80
2018-07-08T16:45:00.144Z,74.90
2018-07-08T16:47:27.873Z,74.90
2018-07-08T16:49:55.596Z,74.80
2018-07-08T16:52:23.416Z,74.90
2018-07-08T16:54:51.105Z,74.90
2018-07-08T16:57:18.778Z,74.90
2018-07-08T16:59:46.453Z,74.90
2018-07-08T17:02:14.231Z,74.80
2018-07-08T17:04:41.925Z,74.90
2018-07-08T17:07:09.613Z,75.80
2018-07-08T17:12:06.513Z,76.30
2018-07-08T17:14:35.357Z,76.50
2018-07-08T17:17:04.397Z,76.30
2018-07-08T17:19:34.212Z,75.80
2018-07-08T17:22:02.344Z,75.50
2018-07-08T17:24:30.153Z,75.80
2018-07-08T17:26:59.354Z,75.50
2018-07-08T17:29:28.139Z,75.20
2018-07-08T17:31:56.724Z,75.50
2018-07-08T17:34:24.882Z,75.40
2018-07-08T17:36:52.655Z,75.00
2018-07-08T17:39:20.461Z,74.70
2018-07-08T17:41:48.180Z,74.60
2018-07-08T17:44:15.991Z,74.50
2018-07-08T18:06:07.638Z,74.90
2018-07-08T18:25:11.788Z,75.20
2018-07-08T18:27:39.464Z,75.30
2018-07-08T18:46:46.976Z,75.10
2018-07-08T18:49:14.694Z,75.20
2018-07-08T19:10:46.908Z,74.90
2018-07-08T19:29:54.033Z,75.00
2018-07-08T19:32:21.720Z,75.00
2018-07-08T19:34:49.444Z,75.00
2018-07-08T19:37:17.209Z,75.00
2018-07-08T19:39:44.916Z,75.00
2018-07-08T19:42:12.600Z,74.90
2018-07-08T19:44:40.604Z,75.10
2018-07-08T19:47:09.203Z,74.90
2018-07-08T19:49:36.900Z,74.90
2018-07-08T19:52:05.477Z,74.90
2018-07-08T19:54:35.177Z,74.90
2018-07-08T19:57:05.085Z,74.90
2018-07-08T19:59:34.733Z,75.10
2018-07-08T20:18:40.509Z,75.00
2018-07-08T20:21:08.220Z,75.00
2018-07-08T20:40:16.244Z,74.60
2018-07-08T20:42:43.958Z,74.90
2018-07-08T21:01:54.044Z,74.70
2018-07-08T21:04:23.257Z,74.80
2018-07-08T21:09:20.077Z,75.30
2018-07-08T21:28:24.467Z,74.90
2018-07-08T21:47:29.501Z,74.80
2018-07-08T21:49:57.184Z,74.80
2018-07-08T21:52:24.860Z,75.00
2018-07-08T21:54:52.565Z,75.00
2018-07-08T21:57:20.288Z,74.80
2018-07-08T21:59:49.257Z,74.80
2018-07-08T22:02:18.884Z,74.80
2018-07-08T22:04:46.708Z,74.80
2018-07-08T22:07:20.115Z,74.80
2018-07-08T22:09:48.286Z,74.80
2018-07-08T22:12:16.028Z,74.80
2018-07-08T22:17:12.083Z,74.90
2018-07-08T22:19:41.224Z,74.90
2018-07-08T22:22:09.949Z,74.90
2018-07-08T22:24:38.535Z,75.00
2018-07-08T22:27:06.312Z,74.90
2018-07-08T22:29:35.625Z,75.00
2018-07-08T22:32:04.529Z,75.00
2018-07-08T22:34:32.217Z,75.60
2018-07-08T22:37:01.127Z,75.00
2018-07-08T22:39:28.877Z,75.00
2018-07-08T22:41:58.474Z,75.10
2018-07-08T22:44:27.212Z,75.00
2018-07-08T22:49:22.340Z,75.10
2018-07-08T22:51:50.336Z,75.00
2018-07-08T22:54:18.051Z,75.10
2018-07-08T22:56:45.745Z,75.10
2018-07-08T22:59:14.234Z,75.10
2018-07-08T23:01:47.566Z,75.20
2018-07-08T23:04:15.244Z,75.20
2018-07-08T23:06:43.371Z,75.20
2018-07-08T23:11:38.489Z,75.30
2018-07-08T23:14:06.189Z,75.20
2018-07-08T23:16:34.825Z,75.20
2018-07-08T23:19:03.719Z,75.40
2018-07-08T23:21:31.415Z,75.30
2018-07-08T23:23:59.588Z,75.20
2018-07-08T23:26:27.311Z,75.10
2018-07-08T23:28:55.017Z,76.00
2018-07-08T23:31:22.711Z,75.30
2018-07-08T23:33:50.425Z,75.30
2018-07-08T23:36:18.113Z,75.30
2018-07-08T23:38:45.796Z,75.30
2018-07-08T23:41:13.492Z,75.90
2018-07-08T23:43:41.186Z,75.30
2018-07-08T23:46:10.835Z,75.30
2018-07-08T23:48:38.532Z,75.30
2018-07-08T23:51:06.241Z,75.30
2018-07-08T23:53:34.935Z,75.30
2018-07-08T23:56:03.138Z,75.30
2018-07-08T23:58:31.870Z,75.30
